Whiting, VT (05778)

2:11 PM EDT on September 01, 2015 (GMT -0400)
Sawyer Needham Road | | Change Station
CLOSE
Current Station
Personal Weather Station
Location: Whiting, VT
Elevation: 410 ft
Nearby Weather Stations

Elev 410 ft 43.86 °N, 73.20 °W | Updated 12 minutes ago

Clear
Clear
82.3 °F
Feels Like 83 °F
N
4.0
Wind Variable Wind from NW
Gusts 8.0 mph

Today
High -- | Low -- °F
--% Chance of Precip.
Yesterday
High -- | Low -- °F
Precip. -- in
6:15 AM 7:29 PM
Waning Gibbous, 87% visible
Pressure 30.05 in
Visibility 10.0 miles
Clouds Clear
Heat Index 83 °F
Dew Point 62 °F
Humidity 51%
Rainfall 0.00 in
Snow Depth Not available.
UV 8 out of 12
Pollen 8.10 out of 12
Air Quality Not available.
Flu Activity Not available.
METAR K6B0 011755Z AUTO 23005KT 10SM CLR 28/13 A3005 RMK AO2 T02830129 10283 20165
Pressure 30.05 in
Visibility 10.0 miles
Clouds Clear
Heat Index 83 °F
Dew Point 62 °F
Humidity 51%
Rainfall 0.00 in
Snow Depth Not available.
UV 8 out of 12
Pollen 8.10 out of 12
Air Quality Not available.
Flu Activity Not available.
METAR K6B0 011755Z AUTO 23005KT 10SM CLR 28/13 A3005 RMK AO2 T02830129 10283 20165

10-Day Weather Forecast

×

Almanac

Astronomy

Sep. 01, 2015 Rise Set
Actual Time
Civil Twilight
Nautical Twilight
Astronomical Twilight
Moon
Length of Visible Light
Length of Day
Tomorrow will be .
, % of the Moon is Illuminated

Today's Extremes

State Highs State Lows

Community

WunderPhotos

Upload Photos

1,851,592 photos uploaded!

WunderBlogs® & News

Nearby

Air Quality

  Air Quality AQ Index Pollutant
Not available.

Snow Depth

Station Depth Elevation

Earthquake Activity

City Distance Mag. Time & Date
Minimum magnitude displayed is 2.5.

Coastal Water Temperatures

Place Temperature

Stations

Nearby Weather Stations

Station Location Temp. Windchill Dew Point Humidity Wind Precip. Elev Updated Type